KTQH 232255Z AUTO 23020G28KT 10SM CLR 16/00 A2965 RMK AO2